createdAt,value
2022-08-17T00:00:01.638Z,27.15
2022-08-17T00:02:29.701Z,23.85
2022-08-17T00:04:58.572Z,25.25
2022-08-17T00:07:25.840Z,23.17
2022-08-17T00:09:52.995Z,27.00
2022-08-17T00:12:41.280Z,26.67
2022-08-17T00:15:10.543Z,26.42
2022-08-17T00:17:38.833Z,24.50
2022-08-17T00:20:06.843Z,23.23
2022-08-17T00:22:36.406Z,22.05
2022-08-17T00:25:07.534Z,21.50
2022-08-17T00:27:38.003Z,21.45
2022-08-17T00:30:07.588Z,22.90
2022-08-17T00:33:12.227Z,24.00
2022-08-17T00:35:40.663Z,23.58
2022-08-17T00:38:10.312Z,24.90
2022-08-17T00:40:44.617Z,25.77
2022-08-17T00:43:27.208Z,24.88
2022-08-17T00:45:55.197Z,23.48
2022-08-17T00:48:30.038Z,25.58
2022-08-17T00:51:03.776Z,24.67
2022-08-17T00:53:33.847Z,27.67
2022-08-17T00:56:03.590Z,27.95
2022-08-17T00:58:36.228Z,29.23
2022-08-17T01:01:05.435Z,35.25
2022-08-17T01:03:33.694Z,33.75
2022-08-17T01:06:04.714Z,38.85
2022-08-17T01:08:33.455Z,36.85
2022-08-17T01:11:05.813Z,37.63
2022-08-17T01:13:41.268Z,37.03
2022-08-17T01:16:26.282Z,39.85
2022-08-17T01:19:02.722Z,42.72
2022-08-17T01:22:00.803Z,37.30
2022-08-17T01:24:29.388Z,41.05
2022-08-17T01:26:57.719Z,37.80
2022-08-17T01:29:26.145Z,37.85
2022-08-17T01:31:56.949Z,45.65
2022-08-17T01:34:42.873Z,40.45
2022-08-17T01:37:13.344Z,41.25
2022-08-17T01:39:45.623Z,41.00
2022-08-17T01:42:36.813Z,45.33
2022-08-17T01:45:11.917Z,39.95
2022-08-17T01:47:39.209Z,37.55
2022-08-17T01:50:12.184Z,39.20
2022-08-17T01:52:40.453Z,38.77
2022-08-17T01:55:10.106Z,37.72
2022-08-17T01:57:37.319Z,37.97
2022-08-17T02:00:10.490Z,41.00
2022-08-17T02:02:37.438Z,38.63
2022-08-17T02:05:05.376Z,44.85
2022-08-17T02:07:32.533Z,44.53
2022-08-17T02:10:20.281Z,42.35
2022-08-17T02:12:49.326Z,42.17
2022-08-17T02:15:16.542Z,42.47
2022-08-17T02:17:43.600Z,45.70
2022-08-17T02:20:11.520Z,39.28
2022-08-17T02:22:40.322Z,42.70
2022-08-17T02:25:09.902Z,45.17
2022-08-17T02:27:39.037Z,41.50
2022-08-17T02:31:00.254Z,44.95
2022-08-17T02:32:56.475Z,44.17
2022-08-17T02:35:23.919Z,44.60
2022-08-17T02:37:51.951Z,41.30
2022-08-17T02:40:35.755Z,41.13
2022-08-17T02:43:05.486Z,41.78
2022-08-17T02:45:32.730Z,41.60
2022-08-17T02:47:59.773Z,44.85
2022-08-17T02:50:27.235Z,44.17
2022-08-17T02:53:01.747Z,41.13
2022-08-17T02:55:36.361Z,43.30
2022-08-17T02:58:04.409Z,45.20
2022-08-17T03:00:35.452Z,43.88
2022-08-17T03:03:05.865Z,43.80
2022-08-17T03:05:35.578Z,44.25
2022-08-17T03:08:05.773Z,45.78
2022-08-17T03:10:33.341Z,42.83
2022-08-17T03:13:00.850Z,42.00
2022-08-17T03:15:31.750Z,41.67
2022-08-17T03:17:59.857Z,42.25
2022-08-17T03:20:28.669Z,45.53
2022-08-17T03:23:02.980Z,42.72
2022-08-17T03:25:37.540Z,44.17
2022-08-17T03:28:06.563Z,39.85
2022-08-17T03:30:34.520Z,38.92
2022-08-17T03:33:04.986Z,40.67
2022-08-17T03:35:34.811Z,40.35
2022-08-17T03:38:02.629Z,37.33
2022-08-17T03:40:34.449Z,41.65
2022-08-17T03:43:19.384Z,43.13
2022-08-17T03:46:05.026Z,37.08
2022-08-17T03:48:51.558Z,40.20
2022-08-17T03:51:48.367Z,43.85
2022-08-17T03:54:33.781Z,40.65
2022-08-17T03:57:05.583Z,40.58
2022-08-17T03:59:33.555Z,40.47
2022-08-17T04:02:13.557Z,45.40
2022-08-17T04:04:40.994Z,43.92
2022-08-17T04:07:08.242Z,44.60
2022-08-17T04:09:36.840Z,45.75
2022-08-17T04:12:05.435Z,42.15
2022-08-17T04:14:51.890Z,42.25
2022-08-17T04:17:23.439Z,41.40
2022-08-17T04:19:50.586Z,42.58
2022-08-17T04:22:32.737Z,44.15
2022-08-17T04:25:08.920Z,48.60
2022-08-17T04:27:36.551Z,47.17
2022-08-17T04:30:07.555Z,50.10
2022-08-17T04:33:06.217Z,44.50
2022-08-17T04:35:38.590Z,48.25
2022-08-17T04:38:07.463Z,50.80
2022-08-17T04:40:52.969Z,48.55
2022-08-17T04:43:22.147Z,45.88
2022-08-17T04:45:56.240Z,44.72
2022-08-17T04:48:37.362Z,43.08
2022-08-17T04:51:08.599Z,48.97
2022-08-17T04:53:35.851Z,43.08
2022-08-17T04:56:03.073Z,42.80
2022-08-17T04:58:30.268Z,41.20
2022-08-17T05:00:57.848Z,44.55
2022-08-17T05:03:25.055Z,46.08
2022-08-17T05:05:52.177Z,45.38
2022-08-17T05:08:20.986Z,42.08
2022-08-17T05:10:49.343Z,42.30
2022-08-17T05:13:24.306Z,40.90
2022-08-17T05:15:55.761Z,41.60
2022-08-17T05:18:24.431Z,39.10
2022-08-17T05:20:52.601Z,40.67
2022-08-17T05:23:21.195Z,42.10
2022-08-17T05:25:50.783Z,43.28
2022-08-17T05:28:24.122Z,41.58
2022-08-17T05:30:55.361Z,47.65
2022-08-17T05:33:25.574Z,44.53
2022-08-17T05:35:55.003Z,41.80
2022-08-17T05:38:24.554Z,46.70
2022-08-17T05:40:52.788Z,43.40
2022-08-17T05:43:25.746Z,43.53
2022-08-17T05:46:22.922Z,41.60
2022-08-17T05:48:53.034Z,47.00
2022-08-17T05:51:59.239Z,44.53
2022-08-17T05:54:28.962Z,47.17
2022-08-17T05:57:34.591Z,49.00
2022-08-17T06:00:26.230Z,47.67
2022-08-17T06:03:11.365Z,46.20
2022-08-17T06:05:59.673Z,48.40
2022-08-17T06:08:37.140Z,45.50
2022-08-17T06:11:39.110Z,52.65
2022-08-17T06:14:30.984Z,52.10
2022-08-17T06:17:06.391Z,72.72
2022-08-17T06:19:42.182Z,54.63
2022-08-17T06:22:13.648Z,53.25
2022-08-17T06:24:51.637Z,51.05
2022-08-17T06:27:46.197Z,53.13
2022-08-17T06:30:15.565Z,57.85
2022-08-17T06:32:45.380Z,52.03
2022-08-17T06:35:16.973Z,52.70
2022-08-17T06:38:05.084Z,56.83
2022-08-17T06:40:47.368Z,55.60
2022-08-17T06:43:51.516Z,55.63
2022-08-17T06:46:33.408Z,59.03
2022-08-17T06:49:22.169Z,55.53
2022-08-17T06:52:07.576Z,57.28
2022-08-17T06:55:00.445Z,63.13
2022-08-17T06:57:33.270Z,60.13
2022-08-17T07:00:17.619Z,59.83
2022-08-17T07:03:07.246Z,57.83
2022-08-17T07:05:37.362Z,62.10
2022-08-17T07:08:35.176Z,53.53
2022-08-17T07:11:32.436Z,56.28
2022-08-17T07:14:17.276Z,56.75
2022-08-17T07:16:49.084Z,54.25
2022-08-17T07:19:18.783Z,54.60
2022-08-17T07:22:06.036Z,59.85
2022-08-17T07:24:47.485Z,56.30
2022-08-17T07:27:31.386Z,60.28
2022-08-17T07:30:06.780Z,59.35
2022-08-17T07:32:45.516Z,64.85
2022-08-17T07:35:41.240Z,61.83
2022-08-17T07:38:24.958Z,61.63
2022-08-17T07:41:03.085Z,58.90
2022-08-17T07:43:35.793Z,69.72
2022-08-17T07:46:30.590Z,58.67
2022-08-17T07:49:23.484Z,61.13
2022-08-17T07:51:51.420Z,63.47
2022-08-17T07:54:35.870Z,66.93
2022-08-17T07:57:08.792Z,61.30
2022-08-17T07:59:38.826Z,67.60
2022-08-17T08:02:17.795Z,68.75
2022-08-17T08:05:01.205Z,67.05
2022-08-17T08:07:50.640Z,75.63
2022-08-17T08:10:27.947Z,69.55
2022-08-17T08:13:12.307Z,73.55
2022-08-17T08:15:53.666Z,88.88
2022-08-17T08:18:53.636Z,81.88
2022-08-17T08:21:59.205Z,75.95
2022-08-17T08:24:44.970Z,77.57
2022-08-17T08:27:34.992Z,78.80
2022-08-17T08:30:06.686Z,74.53
2022-08-17T08:32:57.705Z,71.17
2022-08-17T08:35:44.575Z,67.18
2022-08-17T08:38:28.273Z,58.15
2022-08-17T08:41:30.667Z,58.45
2022-08-17T08:45:01.096Z,56.67
2022-08-17T08:47:37.645Z,56.20
2022-08-17T08:50:37.110Z,50.03
2022-08-17T08:53:14.511Z,51.97
2022-08-17T08:55:51.165Z,47.17
2022-08-17T08:58:31.467Z,50.03
2022-08-17T09:01:18.466Z,49.17
2022-08-17T09:04:23.251Z,49.88
2022-08-17T09:07:08.431Z,50.83
2022-08-17T09:10:05.218Z,55.17
2022-08-17T09:12:56.560Z,47.63
2022-08-17T09:15:28.702Z,48.28
2022-08-17T09:18:59.369Z,45.63
2022-08-17T09:20:55.796Z,44.25
2022-08-17T09:23:39.157Z,40.40
2022-08-17T09:26:25.600Z,42.72
2022-08-17T09:28:55.969Z,47.72
2022-08-17T09:31:33.149Z,37.92
2022-08-17T09:34:09.268Z,35.45
2022-08-17T09:36:44.868Z,36.75
2022-08-17T09:39:20.494Z,37.47
2022-08-17T09:42:05.048Z,40.25
2022-08-17T09:44:49.744Z,49.40
2022-08-17T09:47:32.748Z,47.67
2022-08-17T09:51:05.013Z,40.03
2022-08-17T09:53:17.942Z,36.22
2022-08-17T09:56:20.012Z,34.17
2022-08-17T09:59:22.634Z,35.25
2022-08-17T10:02:16.806Z,32.72
2022-08-17T10:04:58.806Z,32.47
2022-08-17T10:07:36.896Z,24.75
2022-08-17T10:10:56.748Z,29.00
2022-08-17T10:13:41.811Z,27.67
2022-08-17T10:16:23.388Z,24.55
2022-08-17T10:19:07.381Z,25.92
2022-08-17T10:22:01.083Z,25.50
2022-08-17T10:25:23.416Z,23.25
2022-08-17T10:28:02.032Z,20.95
2022-08-17T10:30:33.023Z,23.40
2022-08-17T10:33:15.806Z,19.63
2022-08-17T10:38:40.173Z,17.80
2022-08-17T10:41:33.895Z,16.95
2022-08-17T10:44:41.078Z,22.63
2022-08-17T10:47:15.260Z,21.27
2022-08-17T10:49:54.354Z,21.02
2022-08-17T10:52:22.122Z,20.42
2022-08-17T10:54:51.873Z,20.23
2022-08-17T10:57:31.937Z,21.45
2022-08-17T11:00:00.674Z,19.20
2022-08-17T11:02:31.658Z,22.77
2022-08-17T11:05:14.539Z,22.02
2022-08-17T11:08:05.410Z,22.55
2022-08-17T11:10:57.214Z,27.17
2022-08-17T11:13:45.168Z,20.92
2022-08-17T11:16:53.467Z,21.77
2022-08-17T11:19:57.869Z,16.52
2022-08-17T11:22:44.602Z,23.40
2022-08-17T11:25:31.972Z,21.48
2022-08-17T11:28:34.742Z,17.67
2022-08-17T11:31:38.373Z,14.95
2022-08-17T11:34:19.009Z,18.35
2022-08-17T11:37:01.922Z,18.85
2022-08-17T11:40:08.493Z,15.93
2022-08-17T11:42:50.480Z,13.80
2022-08-17T11:45:32.491Z,13.27
2022-08-17T11:48:55.377Z,14.10
2022-08-17T11:51:55.118Z,13.77
2022-08-17T11:54:33.751Z,16.75
2022-08-17T11:57:21.686Z,13.95
2022-08-17T11:59:48.550Z,13.98
2022-08-17T12:02:35.228Z,14.02
2022-08-17T12:05:13.273Z,12.18
2022-08-17T12:08:07.246Z,10.25
2022-08-17T12:10:36.865Z,13.77
2022-08-17T12:13:13.417Z,9.48
2022-08-17T12:15:48.880Z,9.95
2022-08-17T12:18:20.646Z,13.05
2022-08-17T12:21:01.662Z,13.05
2022-08-17T12:23:57.710Z,12.02
2022-08-17T12:26:33.543Z,10.15
2022-08-17T12:29:04.168Z,10.27
2022-08-17T12:31:53.039Z,13.55
2022-08-17T12:34:36.180Z,12.15
2022-08-17T12:37:08.288Z,9.75
2022-08-17T12:39:35.360Z,9.15
2022-08-17T12:42:03.468Z,10.43
2022-08-17T12:44:36.468Z,9.55
2022-08-17T12:47:22.251Z,8.90
2022-08-17T12:49:54.758Z,7.15
2022-08-17T12:52:33.466Z,8.13
2022-08-17T12:55:02.118Z,12.13
2022-08-17T12:57:41.261Z,8.48
2022-08-17T13:00:13.917Z,9.57
2022-08-17T13:02:51.380Z,7.13
2022-08-17T13:05:27.758Z,9.77
2022-08-17T13:07:57.776Z,8.82
2022-08-17T13:10:32.131Z,12.55
2022-08-17T13:13:05.540Z,8.23
2022-08-17T13:15:44.849Z,8.95
2022-08-17T13:18:39.234Z,13.05
2022-08-17T13:21:19.010Z,11.68
2022-08-17T13:24:04.416Z,12.77
2022-08-17T13:26:44.654Z,9.00
2022-08-17T13:29:27.729Z,10.30
2022-08-17T13:32:19.824Z,9.30
2022-08-17T13:35:12.012Z,12.98
2022-08-17T13:40:08.247Z,26.85
2022-08-17T13:42:52.724Z,19.85
2022-08-17T13:45:36.179Z,21.02
2022-08-17T13:48:13.770Z,27.00
2022-08-17T13:51:11.215Z,28.70
2022-08-17T13:53:37.979Z,25.55
2022-08-17T13:56:37.037Z,30.98
2022-08-17T13:59:04.574Z,21.30
2022-08-17T14:04:13.703Z,26.85
2022-08-17T14:07:24.946Z,20.63
2022-08-17T14:10:09.440Z,9.73
2022-08-17T14:12:39.951Z,12.85
2022-08-17T14:15:08.787Z,10.88
2022-08-17T14:17:38.831Z,8.15
2022-08-17T14:20:09.751Z,8.65
2022-08-17T14:22:40.845Z,9.80
2022-08-17T14:25:08.665Z,7.45
2022-08-17T14:27:47.465Z,12.15
2022-08-17T14:30:22.567Z,9.98
2022-08-17T14:32:52.002Z,11.25
2022-08-17T14:35:24.311Z,10.10
2022-08-17T14:37:52.515Z,9.95
2022-08-17T14:40:21.030Z,12.27
2022-08-17T14:42:48.308Z,10.15
2022-08-17T14:45:29.939Z,15.90
2022-08-17T14:47:59.425Z,12.15
2022-08-17T14:50:27.373Z,16.58
2022-08-17T14:52:57.880Z,14.52
2022-08-17T14:55:26.220Z,12.73
2022-08-17T14:57:53.401Z,14.48
2022-08-17T15:00:20.399Z,15.82
2022-08-17T15:02:53.902Z,18.52
2022-08-17T15:05:23.852Z,14.88
2022-08-17T15:07:51.012Z,13.18
2022-08-17T15:10:18.153Z,12.98
2022-08-17T15:12:45.661Z,21.65
2022-08-17T15:15:16.087Z,14.90
2022-08-17T15:17:46.039Z,16.38
2022-08-17T15:20:33.485Z,11.30
2022-08-17T15:23:00.677Z,12.73
2022-08-17T15:25:32.122Z,11.00
2022-08-17T15:28:00.284Z,14.20
2022-08-17T15:30:27.765Z,15.73
2022-08-17T15:32:56.893Z,15.85
2022-08-17T15:35:27.995Z,16.10
2022-08-17T15:38:06.282Z,18.80
2022-08-17T15:40:43.749Z,18.33
2022-08-17T15:43:17.359Z,15.38
2022-08-17T15:45:45.002Z,14.45
2022-08-17T15:48:40.969Z,12.95
2022-08-17T15:51:15.260Z,10.57
2022-08-17T15:53:44.838Z,9.50
2022-08-17T15:56:13.893Z,12.40
2022-08-17T15:58:42.510Z,15.30
2022-08-17T16:01:16.584Z,7.65
2022-08-17T16:04:04.096Z,6.97
2022-08-17T16:06:33.830Z,7.10
2022-08-17T16:09:00.835Z,8.85
2022-08-17T16:11:27.760Z,7.22
2022-08-17T16:13:56.023Z,11.35
2022-08-17T16:16:23.862Z,9.50
2022-08-17T16:18:54.528Z,10.60
2022-08-17T16:21:31.146Z,10.60
2022-08-17T16:24:13.447Z,10.15
2022-08-17T16:26:40.729Z,10.82
2022-08-17T16:29:08.450Z,9.80
2022-08-17T16:31:36.352Z,14.93
2022-08-17T16:34:17.458Z,10.18
2022-08-17T16:36:54.852Z,11.73
2022-08-17T16:39:29.256Z,8.82
2022-08-17T16:41:57.243Z,10.00
2022-08-17T16:44:24.320Z,11.38
2022-08-17T16:46:51.279Z,9.77
2022-08-17T16:49:35.706Z,10.73
2022-08-17T16:52:04.530Z,9.48
2022-08-17T16:54:31.474Z,8.52
2022-08-17T16:56:58.313Z,8.80
2022-08-17T16:59:31.240Z,7.50
2022-08-17T17:02:11.185Z,8.98
2022-08-17T17:04:45.788Z,9.70
2022-08-17T17:07:41.647Z,10.57
2022-08-17T17:10:13.497Z,8.57
2022-08-17T17:13:02.041Z,9.57
2022-08-17T17:15:39.845Z,10.90
2022-08-17T17:18:11.765Z,8.75
2022-08-17T17:21:12.521Z,8.00
2022-08-17T17:23:42.110Z,9.40
2022-08-17T17:26:35.531Z,9.77
2022-08-17T17:29:28.769Z,8.40
2022-08-17T17:32:21.155Z,9.68
2022-08-17T17:34:55.271Z,10.40
2022-08-17T17:37:32.650Z,11.10
2022-08-17T17:40:05.280Z,14.23
2022-08-17T17:42:33.609Z,10.68
2022-08-17T17:45:13.837Z,12.77
2022-08-17T17:47:40.914Z,10.80
2022-08-17T17:50:08.656Z,12.43
2022-08-17T17:52:47.291Z,9.65
2022-08-17T17:55:42.895Z,14.55
2022-08-17T17:58:38.958Z,11.93
2022-08-17T18:01:14.786Z,12.15
2022-08-17T18:04:04.662Z,13.05
2022-08-17T18:07:00.463Z,11.52
2022-08-17T18:09:27.285Z,12.07
2022-08-17T18:11:59.146Z,16.67
2022-08-17T18:14:35.683Z,15.27
2022-08-17T18:17:02.634Z,14.25
2022-08-17T18:19:31.119Z,13.68
2022-08-17T18:22:14.488Z,15.82
2022-08-17T18:24:44.932Z,13.68
2022-08-17T18:27:33.547Z,18.20
2022-08-17T18:30:21.768Z,16.15
2022-08-17T18:32:48.756Z,13.40
2022-08-17T18:35:18.371Z,14.55
2022-08-17T18:38:07.970Z,16.88
2022-08-17T18:40:37.827Z,13.48
2022-08-17T18:43:12.595Z,14.43
2022-08-17T18:45:47.558Z,15.80
2022-08-17T18:48:27.242Z,12.52
2022-08-17T18:50:58.500Z,14.50
2022-08-17T18:53:35.237Z,13.55
2022-08-17T18:56:34.362Z,14.05
2022-08-17T18:59:10.686Z,11.63
2022-08-17T19:02:05.088Z,19.00
2022-08-17T19:05:12.082Z,17.58
2022-08-17T19:07:46.436Z,12.90
2022-08-17T19:10:46.092Z,12.90
2022-08-17T19:13:24.340Z,13.50
2022-08-17T19:16:20.770Z,13.15
2022-08-17T19:19:16.592Z,17.13
2022-08-17T19:21:57.315Z,15.40
2022-08-17T19:24:27.530Z,11.23
2022-08-17T19:27:06.984Z,13.85
2022-08-17T19:29:57.066Z,17.27
2022-08-17T19:32:32.629Z,13.70
2022-08-17T19:35:01.364Z,14.05
2022-08-17T19:37:31.398Z,13.98
2022-08-17T19:40:35.027Z,15.77
2022-08-17T19:43:48.363Z,13.88
2022-08-17T19:46:35.714Z,14.02
2022-08-17T19:49:33.475Z,16.38
2022-08-17T19:52:40.070Z,18.33
2022-08-17T19:55:20.716Z,13.18
2022-08-17T19:58:10.904Z,11.88
2022-08-17T20:00:47.330Z,15.43
2022-08-17T20:03:23.894Z,14.68
2022-08-17T20:06:12.176Z,12.68
2022-08-17T20:08:49.552Z,14.95
2022-08-17T20:11:31.814Z,14.48
2022-08-17T20:14:15.124Z,17.65
2022-08-17T20:16:42.355Z,14.35
2022-08-17T20:19:33.945Z,15.85
2022-08-17T20:22:18.082Z,16.63
2022-08-17T20:24:45.335Z,14.38
2022-08-17T20:27:12.430Z,12.38
2022-08-17T20:30:04.587Z,15.25
2022-08-17T20:32:35.768Z,18.40
2022-08-17T20:35:21.107Z,14.10
2022-08-17T20:37:59.015Z,14.68
2022-08-17T20:40:35.543Z,13.30
2022-08-17T20:43:31.597Z,8.20
2022-08-17T20:46:32.611Z,9.70
2022-08-17T20:49:19.895Z,20.02
2022-08-17T20:52:03.088Z,9.27
2022-08-17T20:54:54.397Z,13.98
2022-08-17T20:57:33.834Z,8.95
2022-08-17T21:00:17.401Z,12.43
2022-08-17T21:03:07.781Z,18.38
2022-08-17T21:06:17.121Z,11.80
2022-08-17T21:09:07.268Z,15.27
2022-08-17T21:11:59.980Z,13.43
2022-08-17T21:14:38.287Z,11.73
2022-08-17T21:17:31.761Z,13.43
2022-08-17T21:20:12.153Z,11.80
2022-08-17T21:23:07.295Z,17.15
2022-08-17T21:26:10.857Z,12.77
2022-08-17T21:29:00.241Z,12.60
2022-08-17T21:31:35.797Z,14.15
2022-08-17T21:34:20.799Z,16.05
2022-08-17T21:36:48.816Z,9.15
2022-08-17T21:39:23.285Z,14.02
2022-08-17T21:42:01.147Z,8.30
2022-08-17T21:44:38.010Z,12.85
2022-08-17T21:47:24.061Z,11.35
2022-08-17T21:49:55.191Z,9.77
2022-08-17T21:52:26.931Z,10.35
2022-08-17T21:54:57.391Z,14.90
2022-08-17T21:57:28.167Z,10.23
2022-08-17T22:00:01.470Z,13.90
2022-08-17T22:02:36.380Z,13.55
2022-08-17T22:05:09.008Z,10.60
2022-08-17T22:10:30.028Z,19.88
2022-08-17T22:13:04.855Z,12.52
2022-08-17T22:15:31.944Z,12.13
2022-08-17T22:18:04.398Z,9.38
2022-08-17T22:20:31.466Z,10.40
2022-08-17T22:23:19.562Z,8.95
2022-08-17T22:26:00.259Z,12.25
2022-08-17T22:28:45.812Z,11.95
2022-08-17T22:31:16.421Z,9.73
2022-08-17T22:33:45.973Z,10.48
2022-08-17T22:36:33.232Z,10.73
2022-08-17T22:39:07.620Z,8.27
2022-08-17T22:42:00.488Z,12.77
2022-08-17T22:44:35.783Z,10.60
2022-08-17T22:47:24.405Z,11.52
2022-08-17T22:49:57.965Z,11.68
2022-08-17T22:52:35.254Z,12.13
2022-08-17T22:55:32.728Z,13.40
2022-08-17T22:58:19.381Z,12.00
2022-08-17T23:00:49.172Z,12.05
2022-08-17T23:03:21.036Z,11.93
2022-08-17T23:06:09.088Z,7.40
2022-08-17T23:08:50.392Z,9.25
2022-08-17T23:11:17.257Z,18.63
2022-08-17T23:13:44.601Z,14.57
2022-08-17T23:16:11.461Z,10.00
2022-08-17T23:18:38.755Z,14.32
2022-08-17T23:21:07.595Z,9.65
2022-08-17T23:23:35.433Z,9.15
2022-08-17T23:26:10.598Z,10.70
2022-08-17T23:28:38.222Z,10.75
2022-08-17T23:31:05.726Z,15.25
2022-08-17T23:33:38.814Z,11.68
2022-08-17T23:36:09.021Z,17.55
2022-08-17T23:38:36.679Z,13.73
2022-08-17T23:41:11.922Z,14.60
2022-08-17T23:43:40.089Z,14.07
2022-08-17T23:46:07.424Z,12.50
2022-08-17T23:48:36.557Z,16.15
2022-08-17T23:51:18.281Z,9.90
2022-08-17T23:53:49.385Z,11.10
2022-08-17T23:56:19.786Z,11.57
2022-08-17T23:58:46.657Z,16.85
